createdAt,value
2022-11-01T00:01:25.849Z,100329.78
2022-11-01T00:06:28.623Z,100330.72
2022-11-01T00:11:31.410Z,100335.22
2022-11-01T00:16:35.436Z,100328.84
2022-11-01T00:21:38.364Z,100328.94
2022-11-01T00:26:41.253Z,100324.00
2022-11-01T00:31:45.383Z,100325.44
2022-11-01T00:36:48.124Z,100321.72
2022-11-01T00:41:50.752Z,100346.75
2022-11-01T00:46:54.831Z,100338.69
2022-11-01T00:51:57.404Z,100333.56
2022-11-01T00:56:59.997Z,100331.44
2022-11-01T01:02:04.094Z,100327.47
2022-11-01T01:07:06.773Z,100311.25
2022-11-01T01:12:09.368Z,100324.16
2022-11-01T01:17:13.457Z,100315.41
2022-11-01T01:22:16.109Z,100314.09
2022-11-01T01:27:19.252Z,100304.78
2022-11-01T01:32:24.854Z,100307.16
2022-11-01T01:37:27.525Z,100297.84
2022-11-01T01:42:31.773Z,100280.38
2022-11-01T01:47:37.772Z,100271.50
2022-11-01T01:52:45.042Z,100265.00
2022-11-01T01:57:48.176Z,100263.16
2022-11-01T02:02:52.352Z,100265.75
2022-11-01T02:07:57.080Z,100289.41
2022-11-01T02:12:59.875Z,100281.88
2022-11-01T02:18:12.714Z,100284.06
2022-11-01T02:23:55.638Z,100288.66
2022-11-01T02:29:14.423Z,100287.56
2022-11-01T02:34:25.146Z,100287.00
2022-11-01T02:39:31.670Z,100280.75
2022-11-01T02:44:38.387Z,100274.00
2022-11-01T02:49:46.509Z,100281.63
2022-11-01T02:54:53.429Z,100278.78
2022-11-01T03:00:02.981Z,100271.16
2022-11-01T03:05:11.423Z,100269.00
2022-11-01T03:10:14.598Z,100287.28
2022-11-01T03:15:23.304Z,100288.75
2022-11-01T03:20:47.401Z,100268.69
2022-11-01T03:25:55.409Z,100269.09
2022-11-01T03:31:03.545Z,100272.81
2022-11-01T03:36:14.495Z,100262.41
2022-11-01T03:41:19.368Z,100285.63
2022-11-01T03:46:22.308Z,100287.03
2022-11-01T03:51:26.248Z,100282.31
2022-11-01T03:56:28.848Z,100294.09
2022-11-01T04:01:31.635Z,100310.38
2022-11-01T04:06:35.745Z,100295.69
2022-11-01T04:11:38.365Z,100287.31
2022-11-01T04:16:58.457Z,100263.69
2022-11-01T04:22:04.196Z,100233.94
2022-11-01T04:27:06.919Z,100211.66
2022-11-01T04:32:09.515Z,100296.28
2022-11-01T04:37:14.116Z,100279.38
2022-11-01T04:42:16.670Z,100315.50
2022-11-01T04:47:19.378Z,100263.44
2022-11-01T04:52:23.976Z,100231.44
2022-11-01T04:57:26.578Z,100276.63
2022-11-01T05:02:31.188Z,100236.03
2022-11-01T05:07:35.369Z,100278.16
2022-11-01T05:12:38.511Z,100275.88
2022-11-01T05:17:42.777Z,100264.56
2022-11-01T05:22:46.706Z,100240.97
2022-11-01T05:27:49.274Z,100257.25
2022-11-01T05:32:56.998Z,100257.06
2022-11-01T05:38:02.688Z,100284.97
2022-11-01T05:43:06.651Z,100280.53
2022-11-01T05:48:09.337Z,100254.78
2022-11-01T05:53:13.547Z,100271.75
2022-11-01T05:58:16.199Z,100256.13
2022-11-01T06:03:18.882Z,100262.91
2022-11-01T06:08:22.855Z,100279.38
2022-11-01T06:13:25.394Z,100300.16
2022-11-01T06:18:28.058Z,100329.53
2022-11-01T06:23:32.054Z,100343.66
2022-11-01T06:28:34.855Z,100344.75
2022-11-01T06:33:37.459Z,100350.13
2022-11-01T06:38:41.439Z,100362.88
2022-11-01T06:43:44.118Z,100371.19
2022-11-01T06:48:48.895Z,100387.28
2022-11-01T06:53:52.809Z,100389.91
2022-11-01T06:58:55.447Z,100394.50
2022-11-01T07:03:58.128Z,100387.38
2022-11-01T07:09:02.454Z,100389.59
2022-11-01T07:14:05.283Z,100368.44
2022-11-01T07:19:07.958Z,100368.75
2022-11-01T07:24:11.933Z,100374.38
2022-11-01T07:29:14.537Z,100373.84
2022-11-01T07:34:17.284Z,100406.88
2022-11-01T07:39:23.893Z,100410.66
2022-11-01T07:44:33.778Z,100419.34
2022-11-01T07:49:44.416Z,100420.69
2022-11-01T07:54:51.547Z,100421.81
2022-11-01T07:59:54.257Z,100414.25
2022-11-01T08:04:56.991Z,100405.50
2022-11-01T08:10:00.994Z,100410.88
2022-11-01T08:15:03.785Z,100433.47
2022-11-01T08:20:07.615Z,100446.28
2022-11-01T08:25:11.889Z,100451.72
2022-11-01T08:30:14.706Z,100453.84
2022-11-01T08:35:20.441Z,100461.72
2022-11-01T08:40:24.707Z,100456.72
2022-11-01T08:45:27.791Z,100465.63
2022-11-01T08:50:49.162Z,100445.44
2022-11-01T08:56:00.456Z,100444.88
2022-11-01T09:01:19.585Z,100442.09
2022-11-01T09:06:24.595Z,100474.59
2022-11-01T09:11:35.604Z,100473.09
2022-11-01T09:16:38.315Z,100485.09
2022-11-01T09:21:41.137Z,100477.59
2022-11-01T09:26:45.593Z,100500.59
2022-11-01T09:31:56.175Z,100501.81
2022-11-01T09:36:58.883Z,100519.50
2022-11-01T09:42:32.123Z,100528.09
2022-11-01T09:48:25.877Z,100545.59
2022-11-01T09:53:45.393Z,100530.06
2022-11-01T09:59:47.685Z,100557.63
2022-11-01T10:05:55.330Z,100540.09
2022-11-01T10:11:27.233Z,100539.47
2022-11-01T10:16:53.448Z,100535.88
2022-11-01T10:22:08.819Z,100526.31
2022-11-01T10:27:19.790Z,100518.97
2022-11-01T10:32:44.008Z,100539.06
2022-11-01T10:38:04.356Z,100534.66
2022-11-01T10:43:25.020Z,100535.63
2022-11-01T10:48:33.774Z,100541.78
2022-11-01T10:53:42.227Z,100555.34
2022-11-01T10:58:50.778Z,100554.53
2022-11-01T11:03:55.456Z,100557.47
2022-11-01T11:08:59.450Z,100550.34
2022-11-01T11:14:06.997Z,100565.22
2022-11-01T11:19:19.606Z,100554.94
2022-11-01T11:24:24.667Z,100565.28
2022-11-01T11:29:38.892Z,100559.13
2022-11-01T11:34:42.243Z,100563.69
2022-11-01T11:40:03.453Z,100544.81
2022-11-01T11:45:18.677Z,100531.56
2022-11-01T11:50:32.764Z,100547.16
2022-11-01T11:55:42.150Z,100540.22
2022-11-01T12:00:50.038Z,100529.53
2022-11-01T12:05:59.826Z,100544.81
2022-11-01T12:11:04.620Z,100551.84
2022-11-01T12:16:17.125Z,100563.28
2022-11-01T12:21:22.872Z,100564.53
2022-11-01T12:26:29.077Z,100555.28
2022-11-01T12:31:33.134Z,100566.59
2022-11-01T12:36:43.675Z,100558.69
2022-11-01T12:41:51.321Z,100566.97
2022-11-01T12:46:58.880Z,100568.13
2022-11-01T12:52:08.175Z,100568.69
2022-11-01T12:57:16.077Z,100568.47
2022-11-01T13:02:39.120Z,100577.75
2022-11-01T13:07:54.108Z,100595.59
2022-11-01T13:13:07.028Z,100597.69
2022-11-01T13:18:19.975Z,100586.66
2022-11-01T13:23:30.384Z,100586.03
2022-11-01T13:28:49.968Z,100597.06
2022-11-01T13:34:04.995Z,100593.00
2022-11-01T13:39:20.579Z,100604.09
2022-11-01T13:44:26.461Z,100602.97
2022-11-01T13:50:19.640Z,100600.94
2022-11-01T13:55:29.195Z,100598.88
2022-11-01T14:00:41.462Z,100610.63
2022-11-01T14:05:46.230Z,100614.16
2022-11-01T14:10:52.080Z,100606.06
2022-11-01T14:16:20.415Z,100611.97
2022-11-01T14:21:31.390Z,100608.16
2022-11-01T14:27:03.367Z,100610.72
2022-11-01T14:32:07.074Z,100611.84
2022-11-01T14:37:18.604Z,100619.34
2022-11-01T14:42:27.410Z,100616.03
2022-11-01T14:47:36.628Z,100625.41
2022-11-01T14:52:42.563Z,100629.28
2022-11-01T14:57:48.520Z,100638.44
2022-11-01T15:02:51.962Z,100629.69
2022-11-01T15:07:56.609Z,100633.03
2022-11-01T15:13:03.288Z,100640.22
2022-11-01T15:18:14.230Z,100644.63
2022-11-01T15:23:20.871Z,100653.38
2022-11-01T15:28:27.169Z,100657.28
2022-11-01T15:33:31.616Z,100657.81
2022-11-01T15:38:36.104Z,100652.66
2022-11-01T15:43:40.368Z,100660.03
2022-11-01T15:48:42.879Z,100662.28
2022-11-01T15:53:45.660Z,100656.50
2022-11-01T15:58:53.693Z,100654.28
2022-11-01T16:04:01.237Z,100660.41
2022-11-01T16:09:08.969Z,100660.69
2022-11-01T16:14:23.992Z,100678.06
2022-11-01T16:19:37.066Z,100678.47
2022-11-01T16:24:39.819Z,100654.09
2022-11-01T16:29:51.020Z,100682.38
2022-11-01T16:34:55.304Z,100702.16
2022-11-01T16:39:59.018Z,100695.44
2022-11-01T16:45:02.985Z,100705.44
2022-11-01T16:50:06.320Z,100703.69
2022-11-01T16:55:11.202Z,100721.28
2022-11-01T17:00:16.671Z,100740.66
2022-11-01T17:05:23.540Z,100744.22
2022-11-01T17:10:26.700Z,100744.00
2022-11-01T17:15:36.123Z,100746.63
2022-11-01T17:20:41.195Z,100757.09
2022-11-01T17:25:47.505Z,100754.59
2022-11-01T17:30:52.108Z,100764.50
2022-11-01T17:35:54.755Z,100767.47
2022-11-01T17:40:57.870Z,100771.91
2022-11-01T17:46:02.602Z,100777.53
2022-11-01T17:51:05.419Z,100778.69
2022-11-01T17:56:08.402Z,100782.84
2022-11-01T18:01:13.280Z,100792.97
2022-11-01T18:06:16.244Z,100783.16
2022-11-01T18:11:35.102Z,100779.88
2022-11-01T18:16:46.815Z,100779.28
2022-11-01T18:21:57.232Z,100787.31
2022-11-01T18:26:59.952Z,100781.88
2022-11-01T18:32:10.537Z,100775.91
2022-11-01T18:37:22.673Z,100792.59
2022-11-01T18:42:26.467Z,100795.88
2022-11-01T18:47:35.770Z,100788.03
2022-11-01T18:52:38.417Z,100794.03
2022-11-01T18:57:41.108Z,100792.50
2022-11-01T19:02:44.997Z,100801.38
2022-11-01T19:13:24.298Z,100806.59
2022-11-01T19:18:28.563Z,100804.31
2022-11-01T19:23:37.299Z,100812.31
2022-11-01T19:28:40.522Z,100808.78
2022-11-01T19:33:48.106Z,100808.78
2022-11-01T19:38:50.859Z,100821.84
2022-11-01T19:43:54.952Z,100828.97
2022-11-01T19:48:59.689Z,100830.00
2022-11-01T19:54:02.226Z,100835.25
2022-11-01T19:59:13.055Z,100834.44
2022-11-01T20:04:27.399Z,100837.19
2022-11-01T20:09:35.492Z,100835.25
2022-11-01T20:14:39.050Z,100833.34
2022-11-01T20:19:43.635Z,100842.94
2022-11-01T20:24:47.147Z,100835.53
2022-11-01T20:29:49.918Z,100852.69
2022-11-01T20:34:53.830Z,100850.00
2022-11-01T20:39:56.377Z,100843.19
2022-11-01T20:44:59.119Z,100850.31
2022-11-01T20:50:04.834Z,100853.56
2022-11-01T20:55:09.531Z,100862.28
2022-11-01T21:00:14.439Z,100852.47
2022-11-01T21:05:23.800Z,100856.56
2022-11-01T21:10:34.153Z,100872.41
2022-11-01T21:15:38.919Z,100864.50
2022-11-01T21:20:46.213Z,100859.88
2022-11-01T21:25:49.842Z,100859.03
2022-11-01T21:30:53.717Z,100867.22
2022-11-01T21:35:57.699Z,100865.59
2022-11-01T21:41:00.433Z,100872.06
2022-11-01T21:46:02.989Z,100876.00
2022-11-01T21:51:07.508Z,100870.22
2022-11-01T21:56:10.125Z,100876.50
2022-11-01T22:01:13.837Z,100868.31
2022-11-01T22:06:18.087Z,100869.69
2022-11-01T22:11:23.643Z,100882.91
2022-11-01T22:16:26.465Z,100876.09
2022-11-01T22:21:31.111Z,100858.38
2022-11-01T22:26:33.976Z,100859.09
2022-11-01T22:31:36.578Z,100851.09
2022-11-01T22:36:42.547Z,100853.34
2022-11-01T22:41:45.409Z,100843.66
2022-11-01T22:46:55.181Z,100846.97
2022-11-01T22:52:05.146Z,100864.38
2022-11-01T22:57:16.152Z,100856.09
2022-11-01T23:02:26.981Z,100875.16
2022-11-01T23:07:34.189Z,100853.50
2022-11-01T23:12:55.376Z,100842.56
2022-11-01T23:18:03.555Z,100855.03
2022-11-01T23:23:18.927Z,100850.19
2022-11-01T23:28:21.985Z,100847.84
2022-11-01T23:33:33.709Z,100858.16
2022-11-01T23:38:41.806Z,100854.88
2022-11-01T23:43:44.446Z,100858.91
2022-11-01T23:48:47.296Z,100872.88
2022-11-01T23:53:53.912Z,100865.16
2022-11-01T23:59:00.577Z,100862.25
